sensor_id;sensor_type;location;lat;lon;timestamp;P1;P2;P0
44045;PMS7003;29709;52.396;16.796;2022-10-31T00:02:30;31;26;20
44045;PMS7003;29709;52.396;16.796;2022-10-31T00:06:00;33;27;20
44045;PMS7003;29709;52.396;16.796;2022-10-31T00:09:04;34;28;20
44045;PMS7003;29709;52.396;16.796;2022-10-31T00:12:07;29;25;17
44045;PMS7003;29709;52.396;16.796;2022-10-31T00:15:10;33;26;20
44045;PMS7003;29709;52.396;16.796;2022-10-31T00:18:13;32;25;19
44045;PMS7003;29709;52.396;16.796;2022-10-31T00:21:16;31;23;16
44045;PMS7003;29709;52.396;16.796;2022-10-31T00:24:20;30;25;18
44045;PMS7003;29709;52.396;16.796;2022-10-31T00:27:23;29;25;19
44045;PMS7003;29709;52.396;16.796;2022-10-31T00:30:25;32;26;19
44045;PMS7003;29709;52.396;16.796;2022-10-31T00:33:28;36;29;21
44045;PMS7003;29709;52.396;16.796;2022-10-31T00:37:00;32;26;19
44045;PMS7003;29709;52.396;16.796;2022-10-31T00:40:03;32;26;20
44045;PMS7003;29709;52.396;16.796;2022-10-31T00:43:07;32;27;20
44045;PMS7003;29709;52.396;16.796;2022-10-31T00:46:10;30;25;17
44045;PMS7003;29709;52.396;16.796;2022-10-31T00:49:14;32;26;20
44045;PMS7003;29709;52.396;16.796;2022-10-31T00:52:17;32;26;19
44045;PMS7003;29709;52.396;16.796;2022-10-31T00:55:20;30;23;17
44045;PMS7003;29709;52.396;16.796;2022-10-31T00:58:23;31;26;19
44045;PMS7003;29709;52.396;16.796;2022-10-31T01:01:26;32;27;20
44045;PMS7003;29709;52.396;16.796;2022-10-31T01:04:28;29;24;16
44045;PMS7003;29709;52.396;16.796;2022-10-31T01:07:34;37;30;21
44045;PMS7003;29709;52.396;16.796;2022-10-31T01:10:38;31;25;17
44045;PMS7003;29709;52.396;16.796;2022-10-31T01:14:08;37;30;21
44045;PMS7003;29709;52.396;16.796;2022-10-31T01:17:12;34;28;20
44045;PMS7003;29709;52.396;16.796;2022-10-31T01:20:18;34;26;19
44045;PMS7003;29709;52.396;16.796;2022-10-31T01:23:22;17;15;6
44045;PMS7003;29709;52.396;16.796;2022-10-31T01:26:26;36;29;21
44045;PMS7003;29709;52.396;16.796;2022-10-31T01:29:32;38;32;21
44045;PMS7003;29709;52.396;16.796;2022-10-31T01:32:35;37;31;21
44045;PMS7003;29709;52.396;16.796;2022-10-31T01:35:38;31;27;19
44045;PMS7003;29709;52.396;16.796;2022-10-31T01:38:41;36;30;21
44045;PMS7003;29709;52.396;16.796;2022-10-31T01:42:14;31;26;18
44045;PMS7003;29709;52.396;16.796;2022-10-31T01:45:22;31;27;18
44045;PMS7003;29709;52.396;16.796;2022-10-31T01:48:26;27;21;17
44045;PMS7003;29709;52.396;16.796;2022-10-31T01:51:35;35;28;20
44045;PMS7003;29709;52.396;16.796;2022-10-31T01:54:43;22;19;13
44045;PMS7003;29709;52.396;16.796;2022-10-31T01:57:52;27;21;15
44045;PMS7003;29709;52.396;16.796;2022-10-31T02:01:23;33;27;20
44045;PMS7003;29709;52.396;16.796;2022-10-31T02:04:26;32;27;20
44045;PMS7003;29709;52.396;16.796;2022-10-31T02:07:32;30;24;17
44045;PMS7003;29709;52.396;16.796;2022-10-31T02:10:40;34;29;20
44045;PMS7003;29709;52.396;16.796;2022-10-31T02:13:45;32;26;19
44045;PMS7003;29709;52.396;16.796;2022-10-31T02:16:50;32;26;19
44045;PMS7003;29709;52.396;16.796;2022-10-31T02:30:07;34;28;20
44045;PMS7003;29709;52.396;16.796;2022-10-31T02:33:23;27;22;16
44045;PMS7003;29709;52.396;16.796;2022-10-31T02:40:21;34;26;19
44045;PMS7003;29709;52.396;16.796;2022-10-31T02:47:03;32;25;19
44045;PMS7003;29709;52.396;16.796;2022-10-31T02:50:01;31;25;18
44045;PMS7003;29709;52.396;16.796;2022-10-31T02:53:09;30;26;19
44045;PMS7003;29709;52.396;16.796;2022-10-31T02:56:37;30;26;19
44045;PMS7003;29709;52.396;16.796;2022-10-31T02:59:42;34;27;20
44045;PMS7003;29709;52.396;16.796;2022-10-31T03:02:59;29;25;18
44045;PMS7003;29709;52.396;16.796;2022-10-31T03:19:11;30;25;18
44045;PMS7003;29709;52.396;16.796;2022-10-31T03:22:21;30;26;19
44045;PMS7003;29709;52.396;16.796;2022-10-31T03:25:27;29;25;19
44045;PMS7003;29709;52.396;16.796;2022-10-31T03:28:36;31;25;18
44045;PMS7003;29709;52.396;16.796;2022-10-31T03:31:49;26;23;16
44045;PMS7003;29709;52.396;16.796;2022-10-31T03:34:59;27;24;18
44045;PMS7003;29709;52.396;16.796;2022-10-31T03:38:06;27;23;17
44045;PMS7003;29709;52.396;16.796;2022-10-31T03:41:38;24;21;15
44045;PMS7003;29709;52.396;16.796;2022-10-31T03:44:48;23;19;14
44045;PMS7003;29709;52.396;16.796;2022-10-31T03:47:55;16;14;14
44045;PMS7003;29709;52.396;16.796;2022-10-31T03:54:14;26;23;17
44045;PMS7003;29709;52.396;16.796;2022-10-31T03:57:26;22;20;15
44045;PMS7003;29709;52.396;16.796;2022-10-31T04:00:35;25;21;16
44045;PMS7003;29709;52.396;16.796;2022-10-31T04:03:43;18;17;14
44045;PMS7003;29709;52.396;16.796;2022-10-31T04:07:12;23;20;16
44045;PMS7003;29709;52.396;16.796;2022-10-31T04:10:17;24;20;15
44045;PMS7003;29709;52.396;16.796;2022-10-31T04:13:24;23;22;16
44045;PMS7003;29709;52.396;16.796;2022-10-31T04:16:30;22;21;16
44045;PMS7003;29709;52.396;16.796;2022-10-31T04:19:33;23;20;15
44045;PMS7003;29709;52.396;16.796;2022-10-31T04:22:36;23;21;16
44045;PMS7003;29709;52.396;16.796;2022-10-31T04:25:40;24;19;14
44045;PMS7003;29709;52.396;16.796;2022-10-31T04:28:43;20;18;14
44045;PMS7003;29709;52.396;16.796;2022-10-31T04:31:46;22;21;16
44045;PMS7003;29709;52.396;16.796;2022-10-31T04:35:15;22;20;15
44045;PMS7003;29709;52.396;16.796;2022-10-31T04:38:18;23;22;16
44045;PMS7003;29709;52.396;16.796;2022-10-31T04:41:21;21;20;15
44045;PMS7003;29709;52.396;16.796;2022-10-31T04:44:24;18;15;12
44045;PMS7003;29709;52.396;16.796;2022-10-31T04:47:27;23;21;16
44045;PMS7003;29709;52.396;16.796;2022-10-31T04:50:32;20;18;13
44045;PMS7003;29709;52.396;16.796;2022-10-31T04:53:35;17;16;12
44045;PMS7003;29709;52.396;16.796;2022-10-31T04:56:38;19;16;12
44045;PMS7003;29709;52.396;16.796;2022-10-31T04:59:41;20;18;14
44045;PMS7003;29709;52.396;16.796;2022-10-31T05:02:44;18;18;14
44045;PMS7003;29709;52.396;16.796;2022-10-31T05:06:16;23;21;16
44045;PMS7003;29709;52.396;16.796;2022-10-31T05:09:19;19;18;15
44045;PMS7003;29709;52.396;16.796;2022-10-31T05:12:22;19;19;15
44045;PMS7003;29709;52.396;16.796;2022-10-31T05:15:25;21;19;15
44045;PMS7003;29709;52.396;16.796;2022-10-31T05:18:30;18;16;13
44045;PMS7003;29709;52.396;16.796;2022-10-31T05:21:32;21;20;15
44045;PMS7003;29709;52.396;16.796;2022-10-31T05:24:35;21;21;16
44045;PMS7003;29709;52.396;16.796;2022-10-31T05:27:42;22;21;15
44045;PMS7003;29709;52.396;16.796;2022-10-31T05:30:46;19;19;15
44045;PMS7003;29709;52.396;16.796;2022-10-31T05:34:17;11;10;7
44045;PMS7003;29709;52.396;16.796;2022-10-31T05:37:20;20;18;13
44045;PMS7003;29709;52.396;16.796;2022-10-31T05:40:26;19;17;13
44045;PMS7003;29709;52.396;16.796;2022-10-31T05:43:30;21;18;14
44045;PMS7003;29709;52.396;16.796;2022-10-31T05:46:33;19;17;14
44045;PMS7003;29709;52.396;16.796;2022-10-31T05:49:35;19;17;14
44045;PMS7003;29709;52.396;16.796;2022-10-31T05:52:38;10;8;5
44045;PMS7003;29709;52.396;16.796;2022-10-31T05:55:42;17;17;13
44045;PMS7003;29709;52.396;16.796;2022-10-31T05:58:45;22;18;14
44045;PMS7003;29709;52.396;16.796;2022-10-31T06:01:48;17;17;13
44045;PMS7003;29709;52.396;16.796;2022-10-31T06:05:17;21;19;15
44045;PMS7003;29709;52.396;16.796;2022-10-31T06:08:20;19;19;14
44045;PMS7003;29709;52.396;16.796;2022-10-31T06:11:23;19;17;13
44045;PMS7003;29709;52.396;16.796;2022-10-31T06:14:26;18;16;13
44045;PMS7003;29709;52.396;16.796;2022-10-31T06:17:29;17;17;12
44045;PMS7003;29709;52.396;16.796;2022-10-31T06:20:32;18;18;14
44045;PMS7003;29709;52.396;16.796;2022-10-31T06:23:35;21;17;14
44045;PMS7003;29709;52.396;16.796;2022-10-31T06:26:38;20;17;14
44045;PMS7003;29709;52.396;16.796;2022-10-31T06:29:41;23;21;15
44045;PMS7003;29709;52.396;16.796;2022-10-31T06:32:44;25;20;14
44045;PMS7003;29709;52.396;16.796;2022-10-31T06:35:48;32;27;18
44045;PMS7003;29709;52.396;16.796;2022-10-31T06:38:51;30;24;17
44045;PMS7003;29709;52.396;16.796;2022-10-31T06:41:53;27;23;17
44045;PMS7003;29709;52.396;16.796;2022-10-31T06:44:56;25;22;16
44045;PMS7003;29709;52.396;16.796;2022-10-31T06:48:29;21;17;14
44045;PMS7003;29709;52.396;16.796;2022-10-31T06:51:32;20;17;14
44045;PMS7003;29709;52.396;16.796;2022-10-31T06:54:36;18;16;13
44045;PMS7003;29709;52.396;16.796;2022-10-31T06:57:41;19;18;14
44045;PMS7003;29709;52.396;16.796;2022-10-31T07:00:46;27;24;18
44045;PMS7003;29709;52.396;16.796;2022-10-31T07:03:51;18;16;12
44045;PMS7003;29709;52.396;16.796;2022-10-31T07:07:05;18;18;14
44045;PMS7003;29709;52.396;16.796;2022-10-31T07:10:43;20;18;15
44045;PMS7003;29709;52.396;16.796;2022-10-31T07:13:55;21;18;14
44045;PMS7003;29709;52.396;16.796;2022-10-31T07:16:58;20;18;14
44045;PMS7003;29709;52.396;16.796;2022-10-31T07:20:01;20;18;14
44045;PMS7003;29709;52.396;16.796;2022-10-31T07:23:04;17;17;13
44045;PMS7003;29709;52.396;16.796;2022-10-31T07:26:08;18;16;13
44045;PMS7003;29709;52.396;16.796;2022-10-31T07:29:12;8;7;4
44045;PMS7003;29709;52.396;16.796;2022-10-31T07:32:15;14;13;12
44045;PMS7003;29709;52.396;16.796;2022-10-31T07:35:22;17;14;12
44045;PMS7003;29709;52.396;16.796;2022-10-31T07:38:53;15;14;12
44045;PMS7003;29709;52.396;16.796;2022-10-31T07:41:57;14;14;12
44045;PMS7003;29709;52.396;16.796;2022-10-31T07:45:01;18;13;11
44045;PMS7003;29709;52.396;16.796;2022-10-31T07:48:04;17;15;11
44045;PMS7003;29709;52.396;16.796;2022-10-31T07:51:07;16;15;13
44045;PMS7003;29709;52.396;16.796;2022-10-31T07:54:10;13;12;9
44045;PMS7003;29709;52.396;16.796;2022-10-31T07:57:13;13;12;9
44045;PMS7003;29709;52.396;16.796;2022-10-31T08:00:16;18;16;12
44045;PMS7003;29709;52.396;16.796;2022-10-31T08:03:21;18;16;12
44045;PMS7003;29709;52.396;16.796;2022-10-31T08:06:59;14;13;9
44045;PMS7003;29709;52.396;16.796;2022-10-31T08:10:02;17;15;12
44045;PMS7003;29709;52.396;16.796;2022-10-31T08:13:07;18;17;13
44045;PMS7003;29709;52.396;16.796;2022-10-31T08:16:11;18;16;12
44045;PMS7003;29709;52.396;16.796;2022-10-31T08:19:14;14;14;11
44045;PMS7003;29709;52.396;16.796;2022-10-31T08:22:17;19;17;13
44045;PMS7003;29709;52.396;16.796;2022-10-31T08:25:21;18;16;13
44045;PMS7003;29709;52.396;16.796;2022-10-31T08:28:26;19;18;13
44045;PMS7003;29709;52.396;16.796;2022-10-31T08:31:31;22;17;13
44045;PMS7003;29709;52.396;16.796;2022-10-31T08:35:05;22;19;14
44045;PMS7003;29709;52.396;16.796;2022-10-31T08:38:09;20;17;12
44045;PMS7003;29709;52.396;16.796;2022-10-31T08:41:14;17;16;12
44045;PMS7003;29709;52.396;16.796;2022-10-31T08:44:17;17;14;10
44045;PMS7003;29709;52.396;16.796;2022-10-31T08:47:22;17;15;12
44045;PMS7003;29709;52.396;16.796;2022-10-31T08:50:27;20;16;12
44045;PMS7003;29709;52.396;16.796;2022-10-31T08:53:32;17;16;13
44045;PMS7003;29709;52.396;16.796;2022-10-31T08:56:37;19;16;12
44045;PMS7003;29709;52.396;16.796;2022-10-31T09:00:11;19;19;14
44045;PMS7003;29709;52.396;16.796;2022-10-31T09:03:15;19;19;14
44045;PMS7003;29709;52.396;16.796;2022-10-31T09:06:20;23;19;14
44045;PMS7003;29709;52.396;16.796;2022-10-31T09:09:23;18;16;13
44045;PMS7003;29709;52.396;16.796;2022-10-31T09:12:28;11;8;5
44045;PMS7003;29709;52.396;16.796;2022-10-31T09:15:33;23;19;15
44045;PMS7003;29709;52.396;16.796;2022-10-31T09:18:38;19;18;13
44045;PMS7003;29709;52.396;16.796;2022-10-31T09:21:43;23;19;13
44045;PMS7003;29709;52.396;16.796;2022-10-31T09:25:16;19;18;14
44045;PMS7003;29709;52.396;16.796;2022-10-31T09:28:20;23;21;15
44045;PMS7003;29709;52.396;16.796;2022-10-31T09:31:25;19;18;14
44045;PMS7003;29709;52.396;16.796;2022-10-31T09:34:28;23;19;14
44045;PMS7003;29709;52.396;16.796;2022-10-31T09:47:56;21;17;12
44045;PMS7003;29709;52.396;16.796;2022-10-31T09:51:07;19;18;13
44045;PMS7003;29709;52.396;16.796;2022-10-31T09:57:47;20;17;13
44045;PMS7003;29709;52.396;16.796;2022-10-31T10:00:50;18;17;13
44045;PMS7003;29709;52.396;16.796;2022-10-31T10:10:37;18;16;13
44045;PMS7003;29709;52.396;16.796;2022-10-31T10:14:15;20;18;13
44045;PMS7003;29709;52.396;16.796;2022-10-31T10:17:29;20;17;12
44045;PMS7003;29709;52.396;16.796;2022-10-31T10:37:23;18;16;13
44045;PMS7003;29709;52.396;16.796;2022-10-31T10:40:38;14;12;9
44045;PMS7003;29709;52.396;16.796;2022-10-31T10:43:42;20;18;13
44045;PMS7003;29709;52.396;16.796;2022-10-31T10:46:48;17;15;12
44045;PMS7003;29709;52.396;16.796;2022-10-31T10:59:54;17;15;13
44045;PMS7003;29709;52.396;16.796;2022-10-31T11:03:22;16;14;11
44045;PMS7003;29709;52.396;16.796;2022-10-31T11:06:25;22;20;14
44045;PMS7003;29709;52.396;16.796;2022-10-31T11:09:28;17;15;11
44045;PMS7003;29709;52.396;16.796;2022-10-31T11:12:32;18;17;14
44045;PMS7003;29709;52.396;16.796;2022-10-31T11:15:49;17;16;13
44045;PMS7003;29709;52.396;16.796;2022-10-31T11:18:49;19;18;13
44045;PMS7003;29709;52.396;16.796;2022-10-31T11:21:53;20;19;15
44045;PMS7003;29709;52.396;16.796;2022-10-31T11:24:56;20;17;13
44045;PMS7003;29709;52.396;16.796;2022-10-31T11:28:03;21;18;14
44045;PMS7003;29709;52.396;16.796;2022-10-31T11:31:34;19;17;13
44045;PMS7003;29709;52.396;16.796;2022-10-31T11:34:42;18;15;12
44045;PMS7003;29709;52.396;16.796;2022-10-31T11:37:49;18;17;14
44045;PMS7003;29709;52.396;16.796;2022-10-31T11:40:57;19;17;14
44045;PMS7003;29709;52.396;16.796;2022-10-31T11:47:16;19;16;12
44045;PMS7003;29709;52.396;16.796;2022-10-31T11:53:58;13;13;9
44045;PMS7003;29709;52.396;16.796;2022-10-31T11:57:04;12;11;7
44045;PMS7003;29709;52.396;16.796;2022-10-31T12:06:43;15;14;11
44045;PMS7003;29709;52.396;16.796;2022-10-31T12:09:53;14;13;10
44045;PMS7003;29709;52.396;16.796;2022-10-31T12:20:07;15;12;9
44045;PMS7003;29709;52.396;16.796;2022-10-31T12:23:21;16;13;11
44045;PMS7003;29709;52.396;16.796;2022-10-31T12:26:34;15;14;11
44045;PMS7003;29709;52.396;16.796;2022-10-31T12:33:05;17;14;11
44045;PMS7003;29709;52.396;16.796;2022-10-31T12:45:59;16;14;12
44045;PMS7003;29709;52.396;16.796;2022-10-31T12:58:55;17;14;11
44045;PMS7003;29709;52.396;16.796;2022-10-31T13:02:09;16;16;12
44045;PMS7003;29709;52.396;16.796;2022-10-31T13:11:51;15;14;10
44045;PMS7003;29709;52.396;16.796;2022-10-31T13:15:03;14;14;10
44045;PMS7003;29709;52.396;16.796;2022-10-31T13:18:13;14;14;12
44045;PMS7003;29709;52.396;16.796;2022-10-31T13:21:26;14;12;9
44045;PMS7003;29709;52.396;16.796;2022-10-31T13:27:58;18;15;12
44045;PMS7003;29709;52.396;16.796;2022-10-31T13:31:03;18;15;12
44045;PMS7003;29709;52.396;16.796;2022-10-31T13:34:33;14;12;10
44045;PMS7003;29709;52.396;16.796;2022-10-31T13:37:44;14;11;9
44045;PMS7003;29709;52.396;16.796;2022-10-31T13:40:59;16;13;11
44045;PMS7003;29709;52.396;16.796;2022-10-31T13:44:20;13;11;9
44045;PMS7003;29709;52.396;16.796;2022-10-31T13:47:28;17;13;10
44045;PMS7003;29709;52.396;16.796;2022-10-31T13:51:02;15;12;10
44045;PMS7003;29709;52.396;16.796;2022-10-31T14:00:41;14;12;9
44045;PMS7003;29709;52.396;16.796;2022-10-31T14:03:46;13;11;9
44045;PMS7003;29709;52.396;16.796;2022-10-31T14:13:45;13;13;11
44045;PMS7003;29709;52.396;16.796;2022-10-31T14:16:44;18;15;12
44045;PMS7003;29709;52.396;16.796;2022-10-31T14:26:38;20;17;13
44045;PMS7003;29709;52.396;16.796;2022-10-31T14:29:41;19;17;13
44045;PMS7003;29709;52.396;16.796;2022-10-31T14:32:44;15;14;10
44045;PMS7003;29709;52.396;16.796;2022-10-31T14:36:00;17;16;13
44045;PMS7003;29709;52.396;16.796;2022-10-31T14:39:21;17;14;12
44045;PMS7003;29709;52.396;16.796;2022-10-31T14:45:53;16;16;13
44045;PMS7003;29709;52.396;16.796;2022-10-31T14:52:19;18;17;12
44045;PMS7003;29709;52.396;16.796;2022-10-31T14:55:49;18;16;13
44045;PMS7003;29709;52.396;16.796;2022-10-31T14:58:59;19;17;12
44045;PMS7003;29709;52.396;16.796;2022-10-31T15:05:18;18;15;12
44045;PMS7003;29709;52.396;16.796;2022-10-31T15:11:37;17;16;13
44045;PMS7003;29709;52.396;16.796;2022-10-31T15:18:19;18;17;13
44045;PMS7003;29709;52.396;16.796;2022-10-31T15:21:28;26;22;16
44045;PMS7003;29709;52.396;16.796;2022-10-31T15:24:33;19;18;14
44045;PMS7003;29709;52.396;16.796;2022-10-31T15:27:39;17;16;13
44045;PMS7003;29709;52.396;16.796;2022-10-31T15:30:49;19;16;14
44045;PMS7003;29709;52.396;16.796;2022-10-31T15:34:00;13;13;9
44045;PMS7003;29709;52.396;16.796;2022-10-31T15:40:18;16;14;10
44045;PMS7003;29709;52.396;16.796;2022-10-31T15:43:23;20;18;14
44045;PMS7003;29709;52.396;16.796;2022-10-31T15:50:03;22;19;14
44045;PMS7003;29709;52.396;16.796;2022-10-31T15:53:21;20;18;14
44045;PMS7003;29709;52.396;16.796;2022-10-31T15:59:38;20;19;14
44045;PMS7003;29709;52.396;16.796;2022-10-31T16:02:47;23;20;15
44045;PMS7003;29709;52.396;16.796;2022-10-31T16:06:19;21;19;14
44045;PMS7003;29709;52.396;16.796;2022-10-31T16:09:23;20;18;14
44045;PMS7003;29709;52.396;16.796;2022-10-31T16:15:46;27;23;16
44045;PMS7003;29709;52.396;16.796;2022-10-31T16:18:52;22;20;16
44045;PMS7003;29709;52.396;16.796;2022-10-31T16:25:12;23;20;15
44045;PMS7003;29709;52.396;16.796;2022-10-31T16:28:21;27;22;16
44045;PMS7003;29709;52.396;16.796;2022-10-31T16:31:30;26;22;17
44045;PMS7003;29709;52.396;16.796;2022-10-31T16:34:39;27;22;16
44045;PMS7003;29709;52.396;16.796;2022-10-31T16:38:08;49;38;25
44045;PMS7003;29709;52.396;16.796;2022-10-31T16:41:11;44;33;23
44045;PMS7003;29709;52.396;16.796;2022-10-31T16:44:18;49;36;24
44045;PMS7003;29709;52.396;16.796;2022-10-31T16:47:26;49;39;25
44045;PMS7003;29709;52.396;16.796;2022-10-31T16:50:29;52;41;27
44045;PMS7003;29709;52.396;16.796;2022-10-31T16:53:32;43;34;23
44045;PMS7003;29709;52.396;16.796;2022-10-31T16:56:35;40;32;23
44045;PMS7003;29709;52.396;16.796;2022-10-31T16:59:40;34;27;20
44045;PMS7003;29709;52.396;16.796;2022-10-31T17:02:44;32;26;19
44045;PMS7003;29709;52.396;16.796;2022-10-31T17:06:14;33;28;19
44045;PMS7003;29709;52.396;16.796;2022-10-31T17:09:17;33;28;19
44045;PMS7003;29709;52.396;16.796;2022-10-31T17:12:21;33;26;18
44045;PMS7003;29709;52.396;16.796;2022-10-31T17:15:30;27;23;17
44045;PMS7003;29709;52.396;16.796;2022-10-31T17:18:41;31;26;18
44045;PMS7003;29709;52.396;16.796;2022-10-31T17:21:45;31;26;18
44045;PMS7003;29709;52.396;16.796;2022-10-31T17:24:48;33;27;19
44045;PMS7003;29709;52.396;16.796;2022-10-31T17:27:51;32;26;19
44045;PMS7003;29709;52.396;16.796;2022-10-31T17:31:23;33;26;19
44045;PMS7003;29709;52.396;16.796;2022-10-31T17:34:30;30;24;16
44045;PMS7003;29709;52.396;16.796;2022-10-31T17:37:33;35;29;21
44045;PMS7003;29709;52.396;16.796;2022-10-31T17:40:37;38;30;22
44045;PMS7003;29709;52.396;16.796;2022-10-31T17:43:46;38;31;22
44045;PMS7003;29709;52.396;16.796;2022-10-31T17:46:49;40;32;22
44045;PMS7003;29709;52.396;16.796;2022-10-31T17:49:51;37;30;21
44045;PMS7003;29709;52.396;16.796;2022-10-31T17:52:56;41;31;22
44045;PMS7003;29709;52.396;16.796;2022-10-31T17:56:25;45;36;25
44045;PMS7003;29709;52.396;16.796;2022-10-31T17:59:28;43;32;21
44045;PMS7003;29709;52.396;16.796;2022-10-31T18:02:32;49;40;31
44045;PMS7003;29709;52.396;16.796;2022-10-31T18:05:35;52;44;32
44045;PMS7003;29709;52.396;16.796;2022-10-31T18:08:38;55;47;35
44045;PMS7003;29709;52.396;16.796;2022-10-31T18:11:42;45;34;22
44045;PMS7003;29709;52.396;16.796;2022-10-31T18:14:45;49;39;28
44045;PMS7003;29709;52.396;16.796;2022-10-31T18:17:48;42;34;23
44045;PMS7003;29709;52.396;16.796;2022-10-31T18:20:51;43;34;25
44045;PMS7003;29709;52.396;16.796;2022-10-31T18:23:58;43;34;23
44045;PMS7003;29709;52.396;16.796;2022-10-31T18:27:27;42;33;24
44045;PMS7003;29709;52.396;16.796;2022-10-31T18:30:30;39;31;21
44045;PMS7003;29709;52.396;16.796;2022-10-31T18:33:34;35;27;17
44045;PMS7003;29709;52.396;16.796;2022-10-31T18:36:39;48;40;29
44045;PMS7003;29709;52.396;16.796;2022-10-31T18:39:42;54;46;31
44045;PMS7003;29709;52.396;16.796;2022-10-31T18:42:45;56;47;33
44045;PMS7003;29709;52.396;16.796;2022-10-31T18:45:47;55;46;33
44045;PMS7003;29709;52.396;16.796;2022-10-31T18:48:50;49;38;27
44045;PMS7003;29709;52.396;16.796;2022-10-31T18:51:53;51;40;28
44045;PMS7003;29709;52.396;16.796;2022-10-31T18:54:56;47;36;25
44045;PMS7003;29709;52.396;16.796;2022-10-31T18:58:27;52;42;30
44045;PMS7003;29709;52.396;16.796;2022-10-31T19:01:30;49;38;27
44045;PMS7003;29709;52.396;16.796;2022-10-31T19:04:33;51;41;30
44045;PMS7003;29709;52.396;16.796;2022-10-31T19:07:36;41;32;22
44045;PMS7003;29709;52.396;16.796;2022-10-31T19:10:39;47;37;25
44045;PMS7003;29709;52.396;16.796;2022-10-31T19:13:43;48;38;26
44045;PMS7003;29709;52.396;16.796;2022-10-31T19:16:46;48;39;26
44045;PMS7003;29709;52.396;16.796;2022-10-31T19:19:49;48;36;25
44045;PMS7003;29709;52.396;16.796;2022-10-31T19:22:52;49;37;26
44045;PMS7003;29709;52.396;16.796;2022-10-31T19:25:56;40;31;21
44045;PMS7003;29709;52.396;16.796;2022-10-31T19:29:29;41;32;22
44045;PMS7003;29709;52.396;16.796;2022-10-31T19:32:33;36;30;21
44045;PMS7003;29709;52.396;16.796;2022-10-31T19:35:36;43;33;23
44045;PMS7003;29709;52.396;16.796;2022-10-31T19:38:39;44;35;23
44045;PMS7003;29709;52.396;16.796;2022-10-31T19:41:45;41;31;22
44045;PMS7003;29709;52.396;16.796;2022-10-31T19:44:48;38;28;18
44045;PMS7003;29709;52.396;16.796;2022-10-31T19:47:51;41;32;21
44045;PMS7003;29709;52.396;16.796;2022-10-31T19:50:59;45;33;22
44045;PMS7003;29709;52.396;16.796;2022-10-31T19:54:03;38;30;20
44045;PMS7003;29709;52.396;16.796;2022-10-31T19:57:32;39;30;21
44045;PMS7003;29709;52.396;16.796;2022-10-31T20:00:38;36;27;18
44045;PMS7003;29709;52.396;16.796;2022-10-31T20:03:42;36;29;20
44045;PMS7003;29709;52.396;16.796;2022-10-31T20:06:46;33;27;19
44045;PMS7003;29709;52.396;16.796;2022-10-31T20:09:49;31;25;18
44045;PMS7003;29709;52.396;16.796;2022-10-31T20:12:52;33;27;18
44045;PMS7003;29709;52.396;16.796;2022-10-31T20:15:59;26;22;16
44045;PMS7003;29709;52.396;16.796;2022-10-31T20:19:04;24;21;15
44045;PMS7003;29709;52.396;16.796;2022-10-31T20:22:07;26;22;16
44045;PMS7003;29709;52.396;16.796;2022-10-31T20:25:35;26;22;16
44045;PMS7003;29709;52.396;16.796;2022-10-31T20:28:39;26;22;16
44045;PMS7003;29709;52.396;16.796;2022-10-31T20:31:43;26;24;16
44045;PMS7003;29709;52.396;16.796;2022-10-31T20:34:47;29;25;18
44045;PMS7003;29709;52.396;16.796;2022-10-31T20:37:50;28;23;16
44045;PMS7003;29709;52.396;16.796;2022-10-31T20:44:04;25;19;13
44045;PMS7003;29709;52.396;16.796;2022-10-31T20:47:08;26;22;15
44045;PMS7003;29709;52.396;16.796;2022-10-31T20:50:11;27;22;16
44045;PMS7003;29709;52.396;16.796;2022-10-31T20:53:39;28;24;16
44045;PMS7003;29709;52.396;16.796;2022-10-31T20:56:42;28;22;16
44045;PMS7003;29709;52.396;16.796;2022-10-31T20:59:45;27;22;15
44045;PMS7003;29709;52.396;16.796;2022-10-31T21:02:48;24;21;15
44045;PMS7003;29709;52.396;16.796;2022-10-31T21:09:01;23;19;13
44045;PMS7003;29709;52.396;16.796;2022-10-31T21:12:04;25;21;15
44045;PMS7003;29709;52.396;16.796;2022-10-31T21:15:08;27;20;14
44045;PMS7003;29709;52.396;16.796;2022-10-31T21:18:12;31;23;16
44045;PMS7003;29709;52.396;16.796;2022-10-31T21:21:41;28;22;16
44045;PMS7003;29709;52.396;16.796;2022-10-31T21:24:44;25;21;14
44045;PMS7003;29709;52.396;16.796;2022-10-31T21:27:47;29;25;16
44045;PMS7003;29709;52.396;16.796;2022-10-31T21:30:51;26;22;16
44045;PMS7003;29709;52.396;16.796;2022-10-31T21:33:54;27;22;15
44045;PMS7003;29709;52.396;16.796;2022-10-31T21:36:58;25;21;15
44045;PMS7003;29709;52.396;16.796;2022-10-31T21:40:01;22;19;13
44045;PMS7003;29709;52.396;16.796;2022-10-31T21:43:04;22;19;11
44045;PMS7003;29709;52.396;16.796;2022-10-31T21:46:11;23;21;15
44045;PMS7003;29709;52.396;16.796;2022-10-31T21:49:43;28;22;15
44045;PMS7003;29709;52.396;16.796;2022-10-31T21:54:35;25;21;15
44045;PMS7003;29709;52.396;16.796;2022-10-31T21:57:38;28;22;14
44045;PMS7003;29709;52.396;16.796;2022-10-31T22:00:41;26;21;16
44045;PMS7003;29709;52.396;16.796;2022-10-31T22:03:44;24;20;15
44045;PMS7003;29709;52.396;16.796;2022-10-31T22:06:47;28;21;15
44045;PMS7003;29709;52.396;16.796;2022-10-31T22:09:51;24;17;13
44045;PMS7003;29709;52.396;16.796;2022-10-31T22:12:54;26;22;16
44045;PMS7003;29709;52.396;16.796;2022-10-31T22:19:08;25;21;15
44045;PMS7003;29709;52.396;16.796;2022-10-31T22:22:38;24;19;14
44045;PMS7003;29709;52.396;16.796;2022-10-31T22:25:40;22;18;13
44045;PMS7003;29709;52.396;16.796;2022-10-31T22:28:44;23;20;15
44045;PMS7003;29709;52.396;16.796;2022-10-31T22:31:49;28;23;17
44045;PMS7003;29709;52.396;16.796;2022-10-31T22:34:53;24;21;15
44045;PMS7003;29709;52.396;16.796;2022-10-31T22:37:56;22;20;15
44045;PMS7003;29709;52.396;16.796;2022-10-31T22:40:59;28;22;16
44045;PMS7003;29709;52.396;16.796;2022-10-31T22:44:03;24;21;16
44045;PMS7003;29709;52.396;16.796;2022-10-31T22:47:07;23;19;14
44045;PMS7003;29709;52.396;16.796;2022-10-31T22:50:10;22;18;12
44045;PMS7003;29709;52.396;16.796;2022-10-31T22:53:38;26;23;16
44045;PMS7003;29709;52.396;16.796;2022-10-31T22:56:42;22;19;14
44045;PMS7003;29709;52.396;16.796;2022-10-31T22:59:46;25;21;15
44045;PMS7003;29709;52.396;16.796;2022-10-31T23:02:48;27;22;15
44045;PMS7003;29709;52.396;16.796;2022-10-31T23:05:53;31;24;17
44045;PMS7003;29709;52.396;16.796;2022-10-31T23:09:01;26;21;14